createdAt,value
2023-01-13T00:00:27.153Z,7.67
2023-01-13T00:03:12.022Z,7.82
2023-01-13T00:05:44.020Z,7.89
2023-01-13T00:08:15.878Z,7.74
2023-01-13T00:10:50.297Z,7.73
2023-01-13T00:13:27.071Z,7.73
2023-01-13T00:16:04.063Z,7.97
2023-01-13T00:18:37.690Z,8.00
2023-01-13T00:21:13.764Z,8.06
2023-01-13T00:23:45.931Z,7.88
2023-01-13T00:26:22.199Z,7.84
2023-01-13T00:28:58.210Z,7.99
2023-01-13T00:31:31.924Z,7.88
2023-01-13T00:34:04.999Z,7.78
2023-01-13T00:36:38.053Z,7.77
2023-01-13T00:39:12.661Z,7.92
2023-01-13T00:42:00.236Z,7.99
2023-01-13T00:44:32.485Z,7.90
2023-01-13T00:47:04.697Z,7.80
2023-01-13T00:49:36.252Z,7.76
2023-01-13T00:52:11.456Z,7.89
2023-01-13T00:54:46.730Z,7.85
2023-01-13T00:57:19.331Z,7.81
2023-01-13T00:59:51.451Z,7.71
2023-01-13T01:02:24.929Z,7.60
2023-01-13T01:04:57.659Z,7.67
2023-01-13T01:07:29.909Z,7.56
2023-01-13T01:10:02.309Z,7.56
2023-01-13T01:12:34.507Z,7.80
2023-01-13T01:15:09.945Z,7.91
2023-01-13T01:17:42.239Z,7.83
2023-01-13T01:20:16.358Z,7.80
2023-01-13T01:22:48.519Z,7.76
2023-01-13T01:25:21.037Z,7.81
2023-01-13T01:27:55.941Z,7.79
2023-01-13T01:30:28.740Z,7.81
2023-01-13T01:33:00.825Z,7.80
2023-01-13T01:35:37.435Z,7.70
2023-01-13T01:38:09.688Z,7.74
2023-01-13T01:40:41.981Z,7.90
2023-01-13T01:43:42.108Z,7.96
2023-01-13T01:46:18.691Z,8.05
2023-01-13T01:49:07.289Z,8.10
2023-01-13T01:51:43.814Z,8.01
2023-01-13T01:54:24.274Z,8.11
2023-01-13T01:56:58.029Z,7.92
2023-01-13T01:59:33.500Z,7.83
2023-01-13T02:02:05.567Z,7.90
2023-01-13T02:04:40.904Z,7.82
2023-01-13T02:07:12.865Z,7.74
2023-01-13T02:09:44.639Z,7.76
2023-01-13T02:12:32.747Z,7.91
2023-01-13T02:15:08.882Z,7.84
2023-01-13T02:17:57.777Z,7.87
2023-01-13T02:20:54.076Z,8.00
2023-01-13T02:24:12.163Z,7.98
2023-01-13T02:27:07.304Z,7.99
2023-01-13T02:30:26.669Z,8.05
2023-01-13T02:33:12.700Z,8.03
2023-01-13T02:35:52.427Z,8.02
2023-01-13T02:38:30.511Z,8.11
2023-01-13T02:41:20.830Z,7.95
2023-01-13T02:44:11.116Z,7.95
2023-01-13T02:47:00.654Z,7.93
2023-01-13T02:49:37.637Z,7.92
2023-01-13T02:52:15.784Z,8.05
2023-01-13T02:54:52.871Z,8.09
2023-01-13T02:57:27.407Z,8.13
2023-01-13T02:59:59.383Z,8.09
2023-01-13T03:02:32.453Z,8.11
2023-01-13T03:05:04.501Z,8.07
2023-01-13T03:08:02.744Z,8.12
2023-01-13T03:10:47.784Z,8.10
2023-01-13T03:14:00.894Z,8.08
2023-01-13T03:16:40.818Z,7.88
2023-01-13T03:19:24.050Z,7.77
2023-01-13T03:22:00.950Z,7.79
2023-01-13T03:24:39.851Z,7.81
2023-01-13T03:27:17.377Z,7.86
2023-01-13T03:29:52.433Z,7.89
2023-01-13T03:32:29.085Z,7.80
2023-01-13T03:35:06.016Z,7.75
2023-01-13T03:37:41.092Z,7.77
2023-01-13T03:40:21.791Z,7.71
2023-01-13T03:43:16.023Z,7.62
2023-01-13T03:45:54.656Z,7.66
2023-01-13T03:48:29.393Z,7.60
2023-01-13T03:51:02.193Z,7.57
2023-01-13T03:53:38.933Z,7.54
2023-01-13T03:56:14.579Z,7.48
2023-01-13T03:58:49.631Z,7.54
2023-01-13T04:01:26.539Z,7.58
2023-01-13T04:04:03.097Z,7.65
2023-01-13T04:06:42.099Z,7.71
2023-01-13T04:09:21.005Z,7.77
2023-01-13T04:11:57.601Z,7.74
2023-01-13T04:14:30.902Z,7.68
2023-01-13T04:17:02.556Z,7.65
2023-01-13T04:19:34.794Z,7.76
2023-01-13T04:22:06.433Z,7.72
2023-01-13T04:24:38.573Z,7.75
2023-01-13T04:27:10.122Z,7.77
2023-01-13T04:29:41.730Z,7.77
2023-01-13T04:32:56.398Z,7.81
2023-01-13T04:36:17.440Z,7.79
2023-01-13T04:38:48.977Z,7.71
2023-01-13T04:41:20.585Z,7.79
2023-01-13T04:43:52.332Z,7.79
2023-01-13T04:46:24.011Z,7.60
2023-01-13T04:48:55.447Z,7.72
2023-01-13T04:51:27.676Z,7.85
2023-01-13T04:53:59.227Z,7.94
2023-01-13T04:56:30.682Z,7.93
2023-01-13T04:59:02.169Z,7.95
2023-01-13T05:01:33.944Z,8.03
2023-01-13T05:04:05.482Z,8.06
2023-01-13T05:06:37.395Z,8.12
2023-01-13T05:09:09.100Z,8.08
2023-01-13T05:11:57.703Z,8.11
2023-01-13T05:14:46.412Z,8.17
2023-01-13T05:17:22.883Z,8.05
2023-01-13T05:19:54.538Z,8.00
2023-01-13T05:22:43.306Z,7.98
2023-01-13T05:25:25.552Z,7.84
2023-01-13T05:27:58.512Z,7.73
2023-01-13T05:30:32.590Z,7.72
2023-01-13T05:33:04.109Z,7.72
2023-01-13T05:35:35.560Z,7.81
2023-01-13T05:38:07.407Z,7.83
2023-01-13T05:40:56.379Z,7.86
2023-01-13T05:43:28.866Z,7.78
2023-01-13T05:46:03.339Z,7.87
2023-01-13T05:48:36.859Z,8.01
2023-01-13T05:51:10.959Z,8.10
2023-01-13T05:53:43.164Z,8.09
2023-01-13T05:56:14.675Z,8.03
2023-01-13T05:58:46.498Z,8.06
2023-01-13T06:01:18.341Z,8.18
2023-01-13T06:03:49.729Z,8.21
2023-01-13T06:06:22.236Z,8.04
2023-01-13T06:08:53.560Z,7.87
2023-01-13T06:11:25.244Z,7.98
2023-01-13T06:13:56.901Z,8.10
2023-01-13T06:16:28.947Z,8.19
2023-01-13T06:19:00.676Z,8.26
2023-01-13T06:21:33.315Z,8.30
2023-01-13T06:24:05.488Z,8.35
2023-01-13T06:26:40.820Z,8.44
2023-01-13T06:29:18.184Z,8.36
2023-01-13T06:31:49.791Z,8.27
2023-01-13T06:34:21.727Z,8.20
2023-01-13T06:36:56.068Z,8.00
2023-01-13T06:39:31.457Z,7.94
2023-01-13T06:42:22.086Z,8.18
2023-01-13T06:44:53.756Z,8.22
2023-01-13T06:47:25.597Z,8.34
2023-01-13T06:49:57.262Z,8.35
2023-01-13T06:52:30.906Z,8.18
2023-01-13T06:55:05.053Z,8.13
2023-01-13T06:57:36.792Z,8.13
2023-01-13T07:00:12.973Z,8.20
2023-01-13T07:02:46.468Z,8.27
2023-01-13T07:05:19.863Z,8.28
2023-01-13T07:07:53.046Z,8.31
2023-01-13T07:10:24.672Z,8.24
2023-01-13T07:13:13.600Z,8.17
2023-01-13T07:15:54.035Z,8.20
2023-01-13T07:18:27.598Z,8.22
2023-01-13T07:21:02.244Z,8.22
2023-01-13T07:23:36.151Z,8.18
2023-01-13T07:26:09.737Z,8.27
2023-01-13T07:28:42.700Z,8.37
2023-01-13T07:31:19.071Z,8.39
2023-01-13T07:33:50.944Z,8.46
2023-01-13T07:36:22.465Z,8.39
2023-01-13T07:38:54.896Z,8.45
2023-01-13T07:41:44.108Z,8.50
2023-01-13T07:44:15.525Z,8.42
2023-01-13T07:46:47.118Z,8.44
2023-01-13T07:49:20.326Z,8.47
2023-01-13T07:51:53.310Z,8.44
2023-01-13T07:54:35.093Z,8.49
2023-01-13T07:57:11.026Z,8.59
2023-01-13T07:59:42.396Z,8.64
2023-01-13T08:02:16.196Z,8.69
2023-01-13T08:04:47.983Z,8.69
2023-01-13T08:07:19.620Z,8.73
2023-01-13T08:09:51.805Z,8.56
2023-01-13T08:12:53.038Z,8.57
2023-01-13T08:15:30.001Z,8.66
2023-01-13T08:18:01.525Z,8.77
2023-01-13T08:20:33.027Z,8.78
2023-01-13T08:23:07.021Z,8.75
2023-01-13T08:25:38.877Z,8.83
2023-01-13T08:28:10.616Z,8.93
2023-01-13T08:30:42.384Z,8.95
2023-01-13T08:33:14.597Z,8.80
2023-01-13T08:35:46.136Z,8.61
2023-01-13T08:38:17.522Z,8.50
2023-01-13T08:40:49.920Z,8.50
2023-01-13T08:43:22.136Z,8.41
2023-01-13T08:46:02.011Z,8.30
2023-01-13T08:48:33.814Z,8.24
2023-01-13T08:51:10.734Z,8.26
2023-01-13T08:53:42.148Z,8.30
2023-01-13T08:56:15.188Z,8.30
2023-01-13T08:58:47.680Z,8.32
2023-01-13T09:01:23.875Z,8.24
2023-01-13T09:03:56.393Z,8.36
2023-01-13T09:06:27.963Z,8.56
2023-01-13T09:08:59.517Z,8.57
2023-01-13T09:11:51.622Z,8.54
2023-01-13T09:14:25.241Z,8.63
2023-01-13T09:16:56.888Z,8.65
2023-01-13T09:19:29.181Z,8.67
2023-01-13T09:22:00.802Z,8.89
2023-01-13T09:24:33.228Z,8.95
2023-01-13T09:27:04.676Z,9.10
2023-01-13T09:29:36.487Z,9.20
2023-01-13T09:32:08.853Z,9.30
2023-01-13T09:34:57.817Z,9.21
2023-01-13T09:37:30.415Z,9.04
2023-01-13T09:40:02.023Z,9.18
2023-01-13T09:42:59.293Z,9.23
2023-01-13T09:45:34.725Z,9.29
2023-01-13T09:48:14.685Z,9.52
2023-01-13T09:50:58.698Z,9.53
2023-01-13T09:53:33.839Z,9.69
2023-01-13T09:56:05.824Z,9.69
2023-01-13T09:58:37.312Z,9.59
2023-01-13T10:01:24.317Z,9.41
2023-01-13T10:03:56.244Z,9.52
2023-01-13T10:06:36.396Z,9.73
2023-01-13T10:09:07.852Z,9.90
2023-01-13T10:12:01.349Z,9.90
2023-01-13T10:14:40.335Z,9.87
2023-01-13T10:17:22.630Z,10.02
2023-01-13T10:19:59.142Z,9.97
2023-01-13T10:22:48.823Z,10.05
2023-01-13T10:25:36.869Z,9.99
2023-01-13T10:28:12.949Z,9.98
2023-01-13T10:30:45.900Z,10.03
2023-01-13T10:33:20.881Z,10.07
2023-01-13T10:36:03.926Z,10.12
2023-01-13T10:38:41.493Z,10.07
2023-01-13T10:41:24.755Z,10.09
2023-01-13T10:44:09.336Z,10.12
2023-01-13T10:46:55.544Z,10.04
2023-01-13T10:49:37.821Z,10.08
2023-01-13T10:52:31.583Z,10.12
2023-01-13T10:55:02.895Z,9.94
2023-01-13T10:57:39.009Z,10.00
2023-01-13T11:00:29.992Z,10.11
2023-01-13T11:03:18.998Z,10.27
2023-01-13T11:05:55.533Z,10.31
2023-01-13T11:08:29.231Z,10.34
2023-01-13T11:11:01.773Z,10.19
2023-01-13T11:13:37.350Z,10.10
2023-01-13T11:16:14.089Z,9.88
2023-01-13T11:19:02.795Z,9.77
2023-01-13T11:21:40.970Z,9.73
2023-01-13T11:24:22.338Z,9.88
2023-01-13T11:27:00.721Z,10.12
2023-01-13T11:29:39.894Z,10.07
2023-01-13T11:32:13.830Z,10.15
2023-01-13T11:34:52.666Z,10.15
2023-01-13T11:37:28.002Z,10.34
2023-01-13T11:40:06.578Z,10.45
2023-01-13T11:42:43.331Z,10.33
2023-01-13T11:45:23.604Z,10.33
2023-01-13T11:47:59.711Z,10.44
2023-01-13T11:50:38.647Z,10.39
2023-01-13T11:53:21.856Z,10.34
2023-01-13T11:56:06.936Z,10.28
2023-01-13T11:58:50.927Z,10.40
2023-01-13T12:01:45.838Z,10.47
2023-01-13T12:04:29.069Z,10.45
2023-01-13T12:07:21.418Z,10.66
2023-01-13T12:10:08.943Z,10.76
2023-01-13T12:12:52.771Z,10.77
2023-01-13T12:15:58.123Z,10.73
2023-01-13T12:18:42.256Z,10.84
2023-01-13T12:21:24.989Z,10.76
2023-01-13T12:24:07.705Z,10.79
2023-01-13T12:26:44.289Z,10.73
2023-01-13T12:29:19.783Z,10.78
2023-01-13T12:31:52.874Z,10.78
2023-01-13T12:34:43.590Z,10.74
2023-01-13T12:37:24.084Z,10.67
2023-01-13T12:40:05.744Z,10.72
2023-01-13T12:43:05.813Z,10.65
2023-01-13T12:45:37.589Z,10.48
2023-01-13T12:48:35.518Z,10.43
2023-01-13T12:51:22.608Z,10.51
2023-01-13T12:53:55.537Z,10.61
2023-01-13T12:56:36.728Z,10.63
2023-01-13T12:59:39.508Z,10.57
2023-01-13T13:02:38.745Z,10.44
2023-01-13T13:05:46.283Z,10.43
2023-01-13T13:08:23.746Z,10.20
2023-01-13T13:11:33.655Z,10.29
2023-01-13T13:14:06.911Z,10.42
2023-01-13T13:16:56.055Z,10.37
2023-01-13T13:19:45.414Z,10.21
2023-01-13T13:22:45.199Z,10.02
2023-01-13T13:25:36.109Z,10.22
2023-01-13T13:28:24.266Z,10.20
2023-01-13T13:31:12.616Z,10.17
2023-01-13T13:33:56.370Z,10.23
2023-01-13T13:37:10.205Z,10.10
2023-01-13T13:40:03.526Z,10.11
2023-01-13T13:43:01.359Z,10.05
2023-01-13T13:45:50.573Z,10.00
2023-01-13T13:48:28.830Z,10.14
2023-01-13T13:51:04.035Z,10.06
2023-01-13T13:53:38.815Z,10.10
2023-01-13T13:56:17.294Z,10.07
2023-01-13T13:58:50.820Z,9.99
2023-01-13T14:01:28.169Z,10.09
2023-01-13T14:04:15.672Z,10.10
2023-01-13T14:07:04.704Z,10.13
2023-01-13T14:09:46.668Z,10.08
2023-01-13T14:12:23.408Z,10.28
2023-01-13T14:14:57.832Z,10.39
2023-01-13T14:17:31.426Z,10.54
2023-01-13T14:20:06.122Z,10.63
2023-01-13T14:22:35.815Z,10.68
2023-01-13T14:25:37.373Z,10.64
2023-01-13T14:28:22.508Z,10.68
2023-01-13T14:30:53.040Z,10.62
2023-01-13T14:33:34.192Z,10.57
2023-01-13T14:36:16.639Z,10.39
2023-01-13T14:38:50.207Z,10.30
2023-01-13T14:41:29.550Z,10.26
2023-01-13T14:44:03.088Z,10.28
2023-01-13T14:46:50.568Z,10.23
2023-01-13T14:49:30.277Z,10.01
2023-01-13T14:52:12.977Z,10.14
2023-01-13T14:54:51.168Z,10.39
2023-01-13T14:57:32.642Z,10.35
2023-01-13T15:00:19.440Z,10.38
2023-01-13T15:03:01.616Z,10.27
2023-01-13T15:05:47.823Z,10.27
2023-01-13T15:08:47.657Z,10.42
2023-01-13T15:11:28.151Z,10.44
2023-01-13T15:14:02.962Z,10.30
2023-01-13T15:16:34.969Z,10.19
2023-01-13T15:19:06.765Z,10.07
2023-01-13T15:21:39.046Z,10.05
2023-01-13T15:24:10.746Z,10.10
2023-01-13T15:26:42.517Z,10.13
2023-01-13T15:29:17.075Z,10.00
2023-01-13T15:31:48.575Z,10.02
2023-01-13T15:34:19.876Z,10.19
2023-01-13T15:36:51.933Z,10.30
2023-01-13T15:39:23.488Z,10.23
2023-01-13T15:42:12.327Z,10.31
2023-01-13T15:45:01.829Z,10.28
2023-01-13T15:47:33.629Z,10.07
2023-01-13T15:50:06.182Z,10.11
2023-01-13T15:52:38.502Z,10.17
2023-01-13T15:55:11.530Z,10.14
2023-01-13T15:57:47.981Z,10.25
2023-01-13T16:00:23.939Z,10.29
2023-01-13T16:02:55.648Z,10.18
2023-01-13T16:05:27.406Z,10.15
2023-01-13T16:07:58.895Z,10.10
2023-01-13T16:10:31.457Z,10.14
2023-01-13T16:13:03.765Z,10.15
2023-01-13T16:15:36.228Z,10.16
2023-01-13T16:18:08.983Z,10.01
2023-01-13T16:20:40.797Z,9.96
2023-01-13T16:23:12.834Z,9.96
2023-01-13T16:25:46.964Z,9.94
2023-01-13T16:28:25.030Z,9.91
2023-01-13T16:30:57.561Z,9.77
2023-01-13T16:33:29.341Z,9.79
2023-01-13T16:36:10.865Z,9.76
2023-01-13T16:38:44.357Z,9.75
2023-01-13T16:41:16.280Z,9.83
2023-01-13T16:43:48.327Z,10.00
2023-01-13T16:46:24.803Z,10.10
2023-01-13T16:48:58.535Z,10.06
2023-01-13T16:51:30.152Z,10.14
2023-01-13T16:54:02.856Z,10.08
2023-01-13T16:56:36.027Z,10.01
2023-01-13T16:59:10.669Z,9.80
2023-01-13T17:01:46.460Z,9.72
2023-01-13T17:04:20.958Z,9.68
2023-01-13T17:07:00.594Z,9.82
2023-01-13T17:09:33.489Z,9.81
2023-01-13T17:12:05.926Z,9.76
2023-01-13T17:14:38.248Z,9.76
2023-01-13T17:17:15.814Z,9.70
2023-01-13T17:19:47.599Z,9.58
2023-01-13T17:22:20.225Z,9.56
2023-01-13T17:24:52.941Z,9.54
2023-01-13T17:27:27.028Z,9.55
2023-01-13T17:29:59.005Z,9.77
2023-01-13T17:32:30.861Z,9.89
2023-01-13T17:35:03.823Z,9.82
2023-01-13T17:37:36.295Z,9.82
2023-01-13T17:40:11.703Z,9.88
2023-01-13T17:43:01.041Z,9.80
2023-01-13T17:45:34.055Z,9.74
2023-01-13T17:48:21.051Z,9.71
2023-01-13T17:50:53.684Z,9.67
2023-01-13T17:53:47.364Z,9.74
2023-01-13T17:56:46.666Z,9.91
2023-01-13T17:59:21.431Z,10.03
2023-01-13T18:01:52.652Z,9.93
2023-01-13T18:04:29.247Z,9.83
2023-01-13T18:07:01.419Z,9.78
2023-01-13T18:09:36.454Z,9.94
2023-01-13T18:12:11.929Z,10.01
2023-01-13T18:14:45.504Z,9.90
2023-01-13T18:17:19.222Z,9.82
2023-01-13T18:20:09.154Z,9.74
2023-01-13T18:22:59.961Z,9.77
2023-01-13T18:25:49.014Z,9.71
2023-01-13T18:28:21.121Z,9.75
2023-01-13T18:30:54.372Z,9.85
2023-01-13T18:33:30.999Z,9.82
2023-01-13T18:36:11.268Z,9.91
2023-01-13T18:38:45.461Z,10.04
2023-01-13T18:41:31.568Z,10.04
2023-01-13T18:44:04.401Z,9.99
2023-01-13T18:46:37.050Z,9.98
2023-01-13T18:49:10.455Z,9.88
2023-01-13T18:51:42.160Z,9.90
2023-01-13T18:54:14.697Z,9.87
2023-01-13T18:56:54.007Z,9.96
2023-01-13T18:59:32.096Z,10.02
2023-01-13T19:02:19.055Z,10.06
2023-01-13T19:04:51.134Z,9.95
2023-01-13T19:07:29.572Z,10.03
2023-01-13T19:10:02.280Z,10.03
2023-01-13T19:12:34.487Z,10.06
2023-01-13T19:15:15.349Z,9.94
2023-01-13T19:17:49.761Z,9.78
2023-01-13T19:20:35.968Z,9.79
2023-01-13T19:23:41.523Z,9.71
2023-01-13T19:26:14.809Z,9.88
2023-01-13T19:32:12.762Z,9.94
2023-01-13T19:32:36.284Z,9.96
2023-01-13T19:34:52.344Z,10.00
2023-01-13T19:37:46.083Z,10.02
2023-01-13T19:40:30.796Z,10.03
2023-01-13T19:43:19.779Z,9.94
2023-01-13T19:45:59.842Z,9.99
2023-01-13T19:48:35.550Z,9.94
2023-01-13T19:51:27.915Z,9.88
2023-01-13T19:54:06.047Z,9.95
2023-01-13T19:56:40.771Z,9.78
2023-01-13T19:59:12.487Z,9.83
2023-01-13T20:01:48.889Z,9.88
2023-01-13T20:04:27.748Z,9.96
2023-01-13T20:07:09.524Z,9.95
2023-01-13T20:09:47.042Z,9.90
2023-01-13T20:12:22.704Z,9.82
2023-01-13T20:14:55.693Z,9.83
2023-01-13T20:17:34.437Z,9.86
2023-01-13T20:20:09.327Z,9.87
2023-01-13T20:22:48.872Z,9.85
2023-01-13T20:25:27.483Z,9.78
2023-01-13T20:28:02.704Z,9.67
2023-01-13T20:30:35.942Z,9.67
2023-01-13T20:33:08.275Z,9.73
2023-01-13T20:35:42.265Z,9.80
2023-01-13T20:38:20.951Z,9.91
2023-01-13T20:41:37.920Z,9.96
2023-01-13T20:44:16.486Z,9.82
2023-01-13T20:47:16.650Z,9.79
2023-01-13T20:49:58.801Z,9.69
2023-01-13T20:52:41.272Z,9.62
2023-01-13T20:55:19.957Z,9.64
2023-01-13T20:58:02.731Z,9.58
2023-01-13T21:00:53.649Z,9.53
2023-01-13T21:03:50.655Z,9.50
2023-01-13T21:06:35.383Z,9.49
2023-01-13T21:09:27.981Z,9.42
2023-01-13T21:12:21.258Z,9.43
2023-01-13T21:15:10.818Z,9.42
2023-01-13T21:18:02.721Z,9.38
2023-01-13T21:20:39.237Z,9.31
2023-01-13T21:23:21.090Z,9.28
2023-01-13T21:25:52.799Z,9.35
2023-01-13T21:28:24.355Z,9.37
2023-01-13T21:30:56.199Z,9.23
2023-01-13T21:33:27.982Z,9.26
2023-01-13T21:35:59.670Z,9.24
2023-01-13T21:38:31.205Z,9.16
2023-01-13T21:41:05.912Z,9.14
2023-01-13T21:43:53.398Z,9.11
2023-01-13T21:46:42.816Z,8.96
2023-01-13T21:49:14.421Z,8.81
2023-01-13T21:51:45.881Z,8.72
2023-01-13T21:54:17.335Z,8.70
2023-01-13T21:56:50.732Z,8.81
2023-01-13T21:59:24.166Z,8.78
2023-01-13T22:02:24.512Z,8.76
2023-01-13T22:04:56.831Z,8.76
2023-01-13T22:07:29.105Z,8.77
2023-01-13T22:10:00.681Z,8.63
2023-01-13T22:12:33.100Z,8.64
2023-01-13T22:15:04.973Z,8.54
2023-01-13T22:17:36.592Z,8.64
2023-01-13T22:20:10.398Z,8.61
2023-01-13T22:22:42.718Z,8.60
2023-01-13T22:25:17.341Z,8.62
2023-01-13T22:27:49.554Z,8.63
2023-01-13T22:30:22.571Z,8.57
2023-01-13T22:32:54.115Z,8.46
2023-01-13T22:35:25.850Z,8.41
2023-01-13T22:37:57.353Z,8.44
2023-01-13T22:40:28.852Z,8.53
2023-01-13T22:43:00.382Z,8.46
2023-01-13T22:45:32.918Z,8.42
2023-01-13T22:48:04.487Z,8.44
2023-01-13T22:50:36.256Z,8.50
2023-01-13T22:53:07.862Z,8.44
2023-01-13T22:55:39.395Z,8.46
2023-01-13T22:58:10.873Z,8.45
2023-01-13T23:00:43.242Z,8.33
2023-01-13T23:03:18.866Z,8.24
2023-01-13T23:05:56.942Z,8.27
2023-01-13T23:08:28.399Z,8.27
2023-01-13T23:11:05.930Z,8.30
2023-01-13T23:13:39.621Z,8.29
2023-01-13T23:16:14.925Z,8.36
2023-01-13T23:18:48.340Z,8.55
2023-01-13T23:21:22.469Z,8.45
2023-01-13T23:23:54.088Z,8.28
2023-01-13T23:26:25.558Z,8.35
2023-01-13T23:28:59.094Z,8.33
2023-01-13T23:31:30.705Z,8.35
2023-01-13T23:34:02.493Z,8.32
2023-01-13T23:36:37.189Z,8.38
2023-01-13T23:39:09.970Z,8.44
2023-01-13T23:41:42.357Z,8.44
2023-01-13T23:44:13.788Z,8.41
2023-01-13T23:46:45.501Z,8.31
2023-01-13T23:49:17.149Z,8.08
2023-01-13T23:51:50.901Z,8.04
2023-01-13T23:54:22.341Z,8.09
2023-01-13T23:56:54.047Z,8.01
2023-01-13T23:59:25.663Z,8.02
